sensor_id;sensor_type;location;lat;lon;timestamp;pressure;altitude;pressure_sealevel;temperature;humidity
70053;BME280;57398;52.032;4.376;2023-07-24T00:01:34;100927.13;;;17.26;nan
70053;BME280;57398;52.032;4.376;2023-07-24T00:04:22;100927.13;;;17.31;nan
70053;BME280;57398;52.032;4.376;2023-07-24T00:07:11;100914.53;;;17.28;nan
70053;BME280;57398;52.032;4.376;2023-07-24T00:09:59;100916.91;;;17.30;nan
70053;BME280;57398;52.032;4.376;2023-07-24T00:12:49;100917.44;;;17.32;nan
70053;BME280;57398;52.032;4.376;2023-07-24T00:18:28;100909.53;;;17.27;nan
70053;BME280;57398;52.032;4.376;2023-07-24T00:21:17;100922.66;;;17.22;nan
70053;BME280;57398;52.032;4.376;2023-07-24T00:24:05;100918.47;;;17.21;nan
70053;BME280;57398;52.032;4.376;2023-07-24T00:26:54;100898.78;;;17.18;nan
70053;BME280;57398;52.032;4.376;2023-07-24T00:29:43;100895.63;;;17.21;nan
70053;BME280;57398;52.032;4.376;2023-07-24T00:32:32;100914.25;;;17.25;nan
70053;BME280;57398;52.032;4.376;2023-07-24T00:35:20;100895.34;;;17.17;nan
70053;BME280;57398;52.032;4.376;2023-07-24T00:38:09;100891.69;;;17.19;nan
70053;BME280;57398;52.032;4.376;2023-07-24T00:40:57;100890.38;;;17.21;nan
70053;BME280;57398;52.032;4.376;2023-07-24T00:43:45;100882.22;;;17.17;nan
70053;BME280;57398;52.032;4.376;2023-07-24T00:46:35;100882.50;;;17.16;nan
70053;BME280;57398;52.032;4.376;2023-07-24T00:49:24;100878.56;;;17.19;nan
70053;BME280;57398;52.032;4.376;2023-07-24T00:52:13;100877.25;;;17.16;nan
70053;BME280;57398;52.032;4.376;2023-07-24T00:55:03;100884.59;;;17.19;nan
70053;BME280;57398;52.032;4.376;2023-07-24T00:57:51;100881.69;;;17.15;nan
70053;BME280;57398;52.032;4.376;2023-07-24T01:00:40;100889.84;;;17.14;nan
70053;BME280;57398;52.032;4.376;2023-07-24T01:03:33;100889.31;;;17.17;nan
70053;BME280;57398;52.032;4.376;2023-07-24T01:06:22;100887.47;;;17.12;nan
70053;BME280;57398;52.032;4.376;2023-07-24T01:12:05;100879.84;;;17.06;nan
70053;BME280;57398;52.032;4.376;2023-07-24T01:15:03;100884.59;;;17.09;nan
70053;BME280;57398;52.032;4.376;2023-07-24T01:17:58;100870.94;;;17.07;nan
70053;BME280;57398;52.032;4.376;2023-07-24T01:20:52;100883.53;;;17.10;nan
70053;BME280;57398;52.032;4.376;2023-07-24T01:23:52;100863.59;;;17.09;nan
70053;BME280;57398;52.032;4.376;2023-07-24T01:26:47;100873.03;;;17.05;nan
70053;BME280;57398;52.032;4.376;2023-07-24T01:29:36;100870.41;;;17.05;nan
70053;BME280;57398;52.032;4.376;2023-07-24T01:32:24;100871.72;;;17.02;nan
70053;BME280;57398;52.032;4.376;2023-07-24T01:35:13;100860.94;;;16.93;nan
70053;BME280;57398;52.032;4.376;2023-07-24T01:40:51;100870.91;;;16.91;nan
70053;BME280;57398;52.032;4.376;2023-07-24T01:43:43;100853.31;;;16.87;nan
70053;BME280;57398;52.032;4.376;2023-07-24T01:46:31;100860.94;;;16.88;nan
70053;BME280;57398;52.032;4.376;2023-07-24T01:49:21;100859.09;;;16.89;nan
70053;BME280;57398;52.032;4.376;2023-07-24T01:52:10;100865.38;;;16.88;nan
70053;BME280;57398;52.032;4.376;2023-07-24T01:54:58;100869.59;;;16.89;nan
70053;BME280;57398;52.032;4.376;2023-07-24T01:57:47;100867.22;;;16.92;nan
70053;BME280;57398;52.032;4.376;2023-07-24T02:00:36;100864.06;;;16.90;nan
70053;BME280;57398;52.032;4.376;2023-07-24T02:03:24;100859.34;;;16.92;nan
70053;BME280;57398;52.032;4.376;2023-07-24T02:09:03;100841.25;;;16.91;nan
70053;BME280;57398;52.032;4.376;2023-07-24T02:11:51;100848.34;;;16.95;nan
70053;BME280;57398;52.032;4.376;2023-07-24T02:14:40;100850.19;;;16.95;nan
70053;BME280;57398;52.032;4.376;2023-07-24T02:17:30;100841.78;;;16.98;nan
70053;BME280;57398;52.032;4.376;2023-07-24T02:23:08;100847.28;;;17.02;nan
70053;BME280;57398;52.032;4.376;2023-07-24T02:25:57;100854.38;;;17.01;nan
70053;BME280;57398;52.032;4.376;2023-07-24T02:28:45;100850.97;;;17.01;nan
70053;BME280;57398;52.032;4.376;2023-07-24T02:31:33;100840.47;;;17.01;nan
70053;BME280;57398;52.032;4.376;2023-07-24T02:34:26;100842.56;;;16.99;nan
70053;BME280;57398;52.032;4.376;2023-07-24T02:37:15;100843.63;;;16.98;nan
70053;BME280;57398;52.032;4.376;2023-07-24T02:40:04;100832.34;;;16.97;nan
70053;BME280;57398;52.032;4.376;2023-07-24T02:42:55;100824.22;;;16.93;nan
70053;BME280;57398;52.032;4.376;2023-07-24T02:45:44;100827.88;;;16.92;nan
70053;BME280;57398;52.032;4.376;2023-07-24T02:48:32;100823.97;;;16.95;nan
70053;BME280;57398;52.032;4.376;2023-07-24T02:51:22;100830.50;;;16.92;nan
70053;BME280;57398;52.032;4.376;2023-07-24T02:54:11;100807.41;;;16.89;nan
70053;BME280;57398;52.032;4.376;2023-07-24T02:56:59;100805.31;;;16.86;nan
70053;BME280;57398;52.032;4.376;2023-07-24T02:59:47;100807.13;;;16.86;nan
70053;BME280;57398;52.032;4.376;2023-07-24T03:02:35;100823.16;;;16.84;nan
70053;BME280;57398;52.032;4.376;2023-07-24T03:05:24;100818.16;;;16.83;nan
70053;BME280;57398;52.032;4.376;2023-07-24T03:08:13;100817.91;;;16.84;nan
70053;BME280;57398;52.032;4.376;2023-07-24T03:11:04;100816.59;;;16.82;nan
70053;BME280;57398;52.032;4.376;2023-07-24T03:16:41;100818.97;;;16.88;nan
70053;BME280;57398;52.032;4.376;2023-07-24T03:19:29;100817.91;;;16.89;nan
70053;BME280;57398;52.032;4.376;2023-07-24T03:27:55;100817.38;;;16.92;nan
70053;BME280;57398;52.032;4.376;2023-07-24T03:30:43;100818.69;;;16.90;nan
70053;BME280;57398;52.032;4.376;2023-07-24T03:33:32;100810.28;;;16.88;nan
70053;BME280;57398;52.032;4.376;2023-07-24T03:36:20;100816.31;;;16.83;nan
70053;BME280;57398;52.032;4.376;2023-07-24T03:39:10;100814.75;;;16.82;nan
70053;BME280;57398;52.032;4.376;2023-07-24T03:42:02;100816.84;;;16.85;nan
70053;BME280;57398;52.032;4.376;2023-07-24T03:44:50;100807.13;;;16.86;nan
70053;BME280;57398;52.032;4.376;2023-07-24T03:47:38;100802.94;;;16.85;nan
70053;BME280;57398;52.032;4.376;2023-07-24T03:53:17;100802.94;;;16.85;nan
70053;BME280;57398;52.032;4.376;2023-07-24T03:56:05;100802.69;;;16.86;nan
70053;BME280;57398;52.032;4.376;2023-07-24T03:58:55;100808.47;;;16.88;nan
70053;BME280;57398;52.032;4.376;2023-07-24T04:01:43;100794.56;;;16.93;nan
70053;BME280;57398;52.032;4.376;2023-07-24T04:04:31;100812.41;;;16.91;nan
70053;BME280;57398;52.032;4.376;2023-07-24T04:07:19;100815.81;;;16.91;nan
70053;BME280;57398;52.032;4.376;2023-07-24T04:10:08;100806.34;;;16.90;nan
70053;BME280;57398;52.032;4.376;2023-07-24T04:15:46;100811.09;;;16.93;nan
70053;BME280;57398;52.032;4.376;2023-07-24T04:18:34;100812.94;;;16.93;nan
70053;BME280;57398;52.032;4.376;2023-07-24T04:21:22;100810.56;;;16.91;nan
70053;BME280;57398;52.032;4.376;2023-07-24T04:24:11;100809.78;;;16.91;nan
70053;BME280;57398;52.032;4.376;2023-07-24T04:26:59;100797.97;;;16.88;nan
70053;BME280;57398;52.032;4.376;2023-07-24T04:32:37;100804.25;;;16.92;nan
70053;BME280;57398;52.032;4.376;2023-07-24T04:38:14;100856.47;;;16.94;nan
70053;BME280;57398;52.032;4.376;2023-07-24T04:41:02;100801.91;;;16.91;nan
70053;BME280;57398;52.032;4.376;2023-07-24T04:43:50;100859.88;;;16.94;nan
70053;BME280;57398;52.032;4.376;2023-07-24T04:46:39;100823.16;;;16.94;nan
70053;BME280;57398;52.032;4.376;2023-07-24T04:49:29;100823.69;;;16.96;nan
70053;BME280;57398;52.032;4.376;2023-07-24T04:52:19;100822.13;;;17.01;nan
70053;BME280;57398;52.032;4.376;2023-07-24T04:55:08;100821.84;;;17.02;nan
70053;BME280;57398;52.032;4.376;2023-07-24T04:57:56;100820.81;;;17.03;nan
70053;BME280;57398;52.032;4.376;2023-07-24T05:00:44;100813.47;;;17.05;nan
70053;BME280;57398;52.032;4.376;2023-07-24T05:03:32;100825.53;;;17.11;nan
70053;BME280;57398;52.032;4.376;2023-07-24T05:06:22;100812.94;;;17.13;nan
70053;BME280;57398;52.032;4.376;2023-07-24T05:09:10;100809.25;;;17.14;nan
70053;BME280;57398;52.032;4.376;2023-07-24T05:11:58;100814.50;;;17.20;nan
70053;BME280;57398;52.032;4.376;2023-07-24T05:14:46;100811.63;;;17.16;nan
70053;BME280;57398;52.032;4.376;2023-07-24T05:17:35;100815.03;;;17.22;nan
70053;BME280;57398;52.032;4.376;2023-07-24T05:20:23;100814.00;;;17.28;nan
70053;BME280;57398;52.032;4.376;2023-07-24T05:23:13;100823.97;;;17.26;nan
70053;BME280;57398;52.032;4.376;2023-07-24T05:26:03;100811.88;;;17.25;nan
70053;BME280;57398;52.032;4.376;2023-07-24T05:28:51;100814.22;;;17.31;nan
70053;BME280;57398;52.032;4.376;2023-07-24T05:31:40;100817.41;;;17.44;nan
70053;BME280;57398;52.032;4.376;2023-07-24T05:34:29;100813.69;;;17.45;nan
70053;BME280;57398;52.032;4.376;2023-07-24T05:37:17;100828.66;;;17.54;nan
70053;BME280;57398;52.032;4.376;2023-07-24T05:40:08;100816.06;;;17.62;nan
70053;BME280;57398;52.032;4.376;2023-07-24T05:42:56;100827.84;;;17.69;nan
70053;BME280;57398;52.032;4.376;2023-07-24T05:45:44;100841.25;;;17.68;nan
70053;BME280;57398;52.032;4.376;2023-07-24T05:48:33;100858.84;;;17.72;nan
70053;BME280;57398;52.032;4.376;2023-07-24T05:51:21;100850.19;;;17.67;nan
70053;BME280;57398;52.032;4.376;2023-07-24T05:54:09;100852.56;;;17.63;nan
70053;BME280;57398;52.032;4.376;2023-07-24T05:56:59;100849.13;;;17.63;nan
70053;BME280;57398;52.032;4.376;2023-07-24T05:59:47;100852.03;;;17.56;nan
70053;BME280;57398;52.032;4.376;2023-07-24T06:02:37;100858.06;;;17.56;nan
70053;BME280;57398;52.032;4.376;2023-07-24T06:05:25;100852.03;;;17.66;nan
70053;BME280;57398;52.032;4.376;2023-07-24T06:08:13;100852.84;;;17.62;nan
70053;BME280;57398;52.032;4.376;2023-07-24T06:16:39;100864.63;;;17.69;nan
70053;BME280;57398;52.032;4.376;2023-07-24T06:19:27;100864.38;;;17.66;nan
70053;BME280;57398;52.032;4.376;2023-07-24T06:22:16;100878.03;;;17.68;nan
70053;BME280;57398;52.032;4.376;2023-07-24T06:25:05;100876.44;;;17.72;nan
70053;BME280;57398;52.032;4.376;2023-07-24T06:27:53;100894.06;;;17.66;nan
70053;BME280;57398;52.032;4.376;2023-07-24T06:30:42;100878.03;;;17.63;nan
70053;BME280;57398;52.032;4.376;2023-07-24T06:33:31;100882.50;;;17.62;nan
70053;BME280;57398;52.032;4.376;2023-07-24T06:41:55;100883.00;;;17.79;nan
70053;BME280;57398;52.032;4.376;2023-07-24T06:44:43;100888.78;;;17.97;nan
70053;BME280;57398;52.032;4.376;2023-07-24T06:47:33;100889.03;;;17.95;nan
70053;BME280;57398;52.032;4.376;2023-07-24T06:50:21;100906.38;;;18.17;nan
70053;BME280;57398;52.032;4.376;2023-07-24T06:53:09;100917.00;;;18.56;nan
70053;BME280;57398;52.032;4.376;2023-07-24T06:58:46;100931.41;;;18.74;nan
70053;BME280;57398;52.032;4.376;2023-07-24T07:01:34;100933.97;;;18.90;nan
70053;BME280;57398;52.032;4.376;2023-07-24T07:07:11;100935.97;;;18.48;nan
70053;BME280;57398;52.032;4.376;2023-07-24T07:09:59;100951.19;;;18.61;nan
70053;BME280;57398;52.032;4.376;2023-07-24T07:12:47;100953.03;;;18.61;nan
70053;BME280;57398;52.032;4.376;2023-07-24T07:15:36;100942.75;;;18.70;nan
70053;BME280;57398;52.032;4.376;2023-07-24T07:18:24;100962.25;;;18.58;nan
70053;BME280;57398;52.032;4.376;2023-07-24T07:21:14;100967.25;;;18.60;nan
70053;BME280;57398;52.032;4.376;2023-07-24T07:24:02;100963.03;;;18.59;nan
70053;BME280;57398;52.032;4.376;2023-07-24T07:29:38;100964.19;;;19.02;nan
70053;BME280;57398;52.032;4.376;2023-07-24T07:32:27;100978.34;;;19.56;nan
70053;BME280;57398;52.032;4.376;2023-07-24T07:35:15;100999.25;;;19.42;nan
70053;BME280;57398;52.032;4.376;2023-07-24T07:38:05;101001.31;;;19.06;nan
70053;BME280;57398;52.032;4.376;2023-07-24T07:40:53;100996.31;;;19.04;nan
70053;BME280;57398;52.032;4.376;2023-07-24T07:43:41;101004.81;;;18.86;nan
70053;BME280;57398;52.032;4.376;2023-07-24T07:46:29;100988.44;;;18.94;nan
70053;BME280;57398;52.032;4.376;2023-07-24T07:49:18;100994.75;;;19.03;nan
70053;BME280;57398;52.032;4.376;2023-07-24T07:52:06;101006.56;;;19.06;nan
70053;BME280;57398;52.032;4.376;2023-07-24T07:54:56;101015.06;;;18.82;nan
70053;BME280;57398;52.032;4.376;2023-07-24T07:57:46;101007.47;;;18.81;nan
70053;BME280;57398;52.032;4.376;2023-07-24T08:00:34;101016.91;;;18.82;nan
70053;BME280;57398;52.032;4.376;2023-07-24T08:03:23;101022.19;;;18.82;nan
70053;BME280;57398;52.032;4.376;2023-07-24T08:06:11;101015.84;;;18.88;nan
70053;BME280;57398;52.032;4.376;2023-07-24T08:08:59;100990.22;;;19.09;nan
70053;BME280;57398;52.032;4.376;2023-07-24T08:11:49;101001.66;;;19.39;nan
70053;BME280;57398;52.032;4.376;2023-07-24T08:14:40;101024.41;;;19.69;nan
70053;BME280;57398;52.032;4.376;2023-07-24T08:17:28;101025.97;;;19.70;nan
70053;BME280;57398;52.032;4.376;2023-07-24T08:20:18;101036.88;;;19.93;nan
70053;BME280;57398;52.032;4.376;2023-07-24T08:25:54;101063.31;;;19.82;nan
70053;BME280;57398;52.032;4.376;2023-07-24T08:31:32;101069.19;;;19.64;nan
70053;BME280;57398;52.032;4.376;2023-07-24T08:34:20;101060.13;;;19.41;nan
70053;BME280;57398;52.032;4.376;2023-07-24T08:37:09;101051.78;;;19.18;nan
70053;BME280;57398;52.032;4.376;2023-07-24T08:39:57;101055.16;;;19.34;nan
70053;BME280;57398;52.032;4.376;2023-07-24T08:42:48;101061.25;;;19.74;nan
70053;BME280;57398;52.032;4.376;2023-07-24T08:48:27;101074.06;;;19.91;nan
70053;BME280;57398;52.032;4.376;2023-07-24T08:51:17;101073.66;;;20.08;nan
70053;BME280;57398;52.032;4.376;2023-07-24T08:54:09;101089.19;;;20.15;nan
70053;BME280;57398;52.032;4.376;2023-07-24T08:56:58;101095.38;;;19.95;nan
70053;BME280;57398;52.032;4.376;2023-07-24T08:59:46;101097.72;;;20.01;nan
70053;BME280;57398;52.032;4.376;2023-07-24T09:02:36;101087.28;;;20.20;nan
70053;BME280;57398;52.032;4.376;2023-07-24T09:05:24;101088.69;;;20.42;nan
70053;BME280;57398;52.032;4.376;2023-07-24T09:08:13;101102.41;;;20.97;nan
70053;BME280;57398;52.032;4.376;2023-07-24T09:13:50;101154.03;;;21.08;nan
70053;BME280;57398;52.032;4.376;2023-07-24T09:16:41;101161.81;;;21.24;nan
70053;BME280;57398;52.032;4.376;2023-07-24T09:19:30;101185.81;;;21.51;nan
70053;BME280;57398;52.032;4.376;2023-07-24T09:22:19;101196.50;;;21.84;nan
70053;BME280;57398;52.032;4.376;2023-07-24T09:25:07;101240.06;;;22.30;nan
70053;BME280;57398;52.032;4.376;2023-07-24T09:27:57;101251.72;;;22.48;nan
70053;BME280;57398;52.032;4.376;2023-07-24T09:30:52;101243.44;;;22.35;nan
70053;BME280;57398;52.032;4.376;2023-07-24T09:33:41;101234.69;;;21.54;nan
70053;BME280;57398;52.032;4.376;2023-07-24T09:36:38;101236.44;;;21.10;nan
70053;BME280;57398;52.032;4.376;2023-07-24T09:42:16;101227.53;;;20.33;nan
70053;BME280;57398;52.032;4.376;2023-07-24T09:47:53;101138.56;;;20.04;nan
70053;BME280;57398;52.032;4.376;2023-07-24T09:50:53;101150.84;;;19.79;nan
70053;BME280;57398;52.032;4.376;2023-07-24T09:53:47;101130.16;;;19.97;nan
70053;BME280;57398;52.032;4.376;2023-07-24T09:56:38;101137.25;;;20.01;nan
70053;BME280;57398;52.032;4.376;2023-07-24T09:59:39;101168.09;;;20.06;nan
70053;BME280;57398;52.032;4.376;2023-07-24T10:05:17;101143.66;;;20.29;nan
70053;BME280;57398;52.032;4.376;2023-07-24T10:08:05;101130.63;;;20.73;nan
70053;BME280;57398;52.032;4.376;2023-07-24T10:13:43;101243.47;;;22.49;nan
70053;BME280;57398;52.032;4.376;2023-07-24T10:16:32;101305.19;;;22.50;nan
70053;BME280;57398;52.032;4.376;2023-07-24T10:22:16;101085.59;;;23.00;nan
70053;BME280;57398;52.032;4.376;2023-07-24T10:25:06;99817.69;;;23.29;nan
70053;BME280;57398;52.032;4.376;2023-07-24T10:28:01;99611.25;;;23.89;nan
70053;BME280;57398;52.032;4.376;2023-07-24T10:30:55;99799.00;;;23.83;nan
70053;BME280;57398;52.032;4.376;2023-07-24T10:33:44;99781.31;;;23.87;nan
70053;BME280;57398;52.032;4.376;2023-07-24T10:36:34;99763.75;;;23.82;nan
70053;BME280;57398;52.032;4.376;2023-07-24T10:39:22;99725.28;;;23.15;nan
70053;BME280;57398;52.032;4.376;2023-07-24T10:42:11;99812.66;;;23.48;nan
70053;BME280;57398;52.032;4.376;2023-07-24T10:45:07;99744.50;;;22.45;nan
70053;BME280;57398;52.032;4.376;2023-07-24T10:47:57;99702.03;;;22.00;nan
70053;BME280;57398;52.032;4.376;2023-07-24T10:50:46;99755.06;;;21.73;nan
70053;BME280;57398;52.032;4.376;2023-07-24T10:53:38;99761.50;;;22.14;nan
70053;BME280;57398;52.032;4.376;2023-07-24T10:56:28;99815.34;;;22.40;nan
70053;BME280;57398;52.032;4.376;2023-07-24T10:59:17;99821.84;;;21.91;nan
70053;BME280;57398;52.032;4.376;2023-07-24T11:02:09;99870.97;;;21.28;nan
70053;BME280;57398;52.032;4.376;2023-07-24T11:04:58;99822.66;;;21.19;nan
70053;BME280;57398;52.032;4.376;2023-07-24T11:07:47;99839.59;;;21.35;nan
70053;BME280;57398;52.032;4.376;2023-07-24T11:10:35;99857.13;;;21.40;nan
70053;BME280;57398;52.032;4.376;2023-07-24T11:13:25;99871.16;;;21.40;nan
70053;BME280;57398;52.032;4.376;2023-07-24T11:16:13;99862.38;;;22.04;nan
70053;BME280;57398;52.032;4.376;2023-07-24T11:19:03;99833.59;;;21.64;nan
70053;BME280;57398;52.032;4.376;2023-07-24T11:21:51;99839.63;;;20.48;nan
70053;BME280;57398;52.032;4.376;2023-07-24T11:24:46;99800.06;;;20.74;nan
70053;BME280;57398;52.032;4.376;2023-07-24T11:27:38;99814.63;;;20.37;nan
70053;BME280;57398;52.032;4.376;2023-07-24T11:30:27;99796.75;;;20.42;nan
70053;BME280;57398;52.032;4.376;2023-07-24T11:33:16;99782.16;;;21.15;nan
70053;BME280;57398;52.032;4.376;2023-07-24T11:36:07;99796.00;;;20.94;nan
70053;BME280;57398;52.032;4.376;2023-07-24T11:38:56;99778.44;;;21.07;nan
70053;BME280;57398;52.032;4.376;2023-07-24T11:41:44;99776.25;;;22.24;nan
70053;BME280;57398;52.032;4.376;2023-07-24T11:44:32;99795.09;;;21.54;nan
70053;BME280;57398;52.032;4.376;2023-07-24T11:47:20;99755.94;;;21.39;nan
70053;BME280;57398;52.032;4.376;2023-07-24T11:50:09;99730.59;;;21.00;nan
70053;BME280;57398;52.032;4.376;2023-07-24T11:52:58;99700.41;;;20.54;nan
70053;BME280;57398;52.032;4.376;2023-07-24T11:55:47;99664.75;;;20.30;nan
70053;BME280;57398;52.032;4.376;2023-07-24T11:58:35;99661.94;;;19.92;nan
70053;BME280;57398;52.032;4.376;2023-07-24T12:01:24;99643.13;;;19.67;nan
70053;BME280;57398;52.032;4.376;2023-07-24T12:04:12;99618.69;;;20.27;nan
70053;BME280;57398;52.032;4.376;2023-07-24T12:07:01;99562.19;;;20.84;nan
70053;BME280;57398;52.032;4.376;2023-07-24T12:09:52;99557.22;;;20.36;nan
70053;BME280;57398;52.032;4.376;2023-07-24T12:12:42;99578.88;;;20.67;nan
70053;BME280;57398;52.032;4.376;2023-07-24T12:15:33;99590.16;;;19.95;nan
70053;BME280;57398;52.032;4.376;2023-07-24T12:18:22;99568.28;;;19.59;nan
70053;BME280;57398;52.032;4.376;2023-07-24T12:21:10;99578.66;;;19.64;nan
70053;BME280;57398;52.032;4.376;2023-07-24T12:23:58;99633.72;;;19.83;nan
70053;BME280;57398;52.032;4.376;2023-07-24T12:26:48;99678.50;;;19.83;nan
70053;BME280;57398;52.032;4.376;2023-07-24T12:29:36;100015.91;;;19.19;nan
70053;BME280;57398;52.032;4.376;2023-07-24T12:32:25;100454.84;;;19.19;nan
70053;BME280;57398;52.032;4.376;2023-07-24T12:35:15;100564.34;;;18.77;nan
70053;BME280;57398;52.032;4.376;2023-07-24T12:38:03;100782.84;;;18.56;nan
70053;BME280;57398;52.032;4.376;2023-07-24T12:40:52;100945.06;;;18.87;nan
70053;BME280;57398;52.032;4.376;2023-07-24T12:43:42;101000.59;;;19.35;nan
70053;BME280;57398;52.032;4.376;2023-07-24T12:46:30;100964.94;;;19.53;nan
70053;BME280;57398;52.032;4.376;2023-07-24T12:49:19;100845.81;;;20.09;nan
70053;BME280;57398;52.032;4.376;2023-07-24T12:54:55;99944.06;;;20.18;nan
70053;BME280;57398;52.032;4.376;2023-07-24T12:57:48;99768.88;;;19.44;nan
70053;BME280;57398;52.032;4.376;2023-07-24T13:00:37;99900.97;;;18.92;nan
70053;BME280;57398;52.032;4.376;2023-07-24T13:03:26;100229.22;;;18.87;nan
70053;BME280;57398;52.032;4.376;2023-07-24T13:06:14;100740.66;;;18.67;nan
70053;BME280;57398;52.032;4.376;2023-07-24T13:09:03;101067.19;;;18.75;nan
70053;BME280;57398;52.032;4.376;2023-07-24T13:11:51;101191.13;;;18.38;nan
70053;BME280;57398;52.032;4.376;2023-07-24T13:14:41;101303.91;;;18.24;nan
70053;BME280;57398;52.032;4.376;2023-07-24T13:17:30;101406.03;;;18.37;nan
70053;BME280;57398;52.032;4.376;2023-07-24T13:20:19;101423.31;;;18.86;nan
70053;BME280;57398;52.032;4.376;2023-07-24T13:23:07;101404.81;;;18.76;nan
70053;BME280;57398;52.032;4.376;2023-07-24T13:25:55;101413.09;;;18.37;nan
70053;BME280;57398;52.032;4.376;2023-07-24T13:28:44;101435.72;;;18.33;nan
70053;BME280;57398;52.032;4.376;2023-07-24T13:31:32;101451.75;;;18.31;nan
70053;BME280;57398;52.032;4.376;2023-07-24T13:37:09;101395.34;;;18.70;nan
70053;BME280;57398;52.032;4.376;2023-07-24T13:42:48;101443.97;;;17.72;nan
70053;BME280;57398;52.032;4.376;2023-07-24T13:45:36;101402.31;;;17.86;nan
70053;BME280;57398;52.032;4.376;2023-07-24T13:48:26;101367.97;;;17.65;nan
70053;BME280;57398;52.032;4.376;2023-07-24T13:51:16;101315.72;;;17.69;nan
70053;BME280;57398;52.032;4.376;2023-07-24T13:54:04;101281.16;;;17.87;nan
70053;BME280;57398;52.032;4.376;2023-07-24T13:56:53;101274.13;;;17.55;nan
70053;BME280;57398;52.032;4.376;2023-07-24T13:59:41;101233.69;;;17.09;nan
70053;BME280;57398;52.032;4.376;2023-07-24T14:02:29;101173.78;;;17.01;nan
70053;BME280;57398;52.032;4.376;2023-07-24T14:05:17;101141.78;;;16.71;nan
70053;BME280;57398;52.032;4.376;2023-07-24T14:08:07;101117.00;;;16.84;nan
70053;BME280;57398;52.032;4.376;2023-07-24T14:10:56;101113.38;;;16.95;nan
70053;BME280;57398;52.032;4.376;2023-07-24T14:13:44;101114.91;;;16.86;nan
70053;BME280;57398;52.032;4.376;2023-07-24T14:16:33;101139.06;;;16.56;nan
70053;BME280;57398;52.032;4.376;2023-07-24T14:19:21;101130.22;;;16.35;nan
70053;BME280;57398;52.032;4.376;2023-07-24T14:22:11;101107.25;;;16.15;nan
70053;BME280;57398;52.032;4.376;2023-07-24T14:25:00;101103.03;;;15.87;nan
70053;BME280;57398;52.032;4.376;2023-07-24T14:27:50;101093.84;;;15.84;nan
70053;BME280;57398;52.032;4.376;2023-07-24T14:30:38;101086.50;;;15.81;nan
70053;BME280;57398;52.032;4.376;2023-07-24T14:33:26;101091.34;;;15.95;nan
70053;BME280;57398;52.032;4.376;2023-07-24T14:36:14;101091.84;;;16.24;nan
70053;BME280;57398;52.032;4.376;2023-07-24T14:39:03;101118.44;;;16.38;nan
70053;BME280;57398;52.032;4.376;2023-07-24T14:41:52;101127.94;;;16.44;nan
70053;BME280;57398;52.032;4.376;2023-07-24T14:44:41;101141.41;;;16.58;nan
70053;BME280;57398;52.032;4.376;2023-07-24T14:47:29;101160.09;;;16.34;nan
70053;BME280;57398;52.032;4.376;2023-07-24T14:53:05;101162.38;;;16.25;nan
70053;BME280;57398;52.032;4.376;2023-07-24T14:55:54;101179.94;;;16.52;nan
70053;BME280;57398;52.032;4.376;2023-07-24T14:58:43;101196.84;;;16.99;nan
70053;BME280;57398;52.032;4.376;2023-07-24T15:01:32;101221.13;;;17.16;nan
70053;BME280;57398;52.032;4.376;2023-07-24T15:04:21;101252.13;;;17.24;nan
70053;BME280;57398;52.032;4.376;2023-07-24T15:07:10;101278.72;;;16.95;nan
70053;BME280;57398;52.032;4.376;2023-07-24T15:09:58;101293.53;;;16.80;nan
70053;BME280;57398;52.032;4.376;2023-07-24T15:12:46;101298.22;;;16.55;nan
70053;BME280;57398;52.032;4.376;2023-07-24T15:15:36;101309.22;;;16.30;nan
70053;BME280;57398;52.032;4.376;2023-07-24T15:18:26;101302.97;;;16.31;nan
70053;BME280;57398;52.032;4.376;2023-07-24T15:21:14;101311.00;;;16.25;nan
70053;BME280;57398;52.032;4.376;2023-07-24T15:24:03;101297.47;;;16.33;nan
70053;BME280;57398;52.032;4.376;2023-07-24T15:26:51;101309.72;;;16.49;nan
70053;BME280;57398;52.032;4.376;2023-07-24T15:29:39;101328.59;;;16.51;nan
70053;BME280;57398;52.032;4.376;2023-07-24T15:32:28;101364.06;;;16.32;nan
70053;BME280;57398;52.032;4.376;2023-07-24T15:35:17;101351.19;;;16.30;nan
70053;BME280;57398;52.032;4.376;2023-07-24T15:40:53;101369.91;;;16.61;nan
70053;BME280;57398;52.032;4.376;2023-07-24T15:46:29;101434.00;;;16.70;nan
70053;BME280;57398;52.032;4.376;2023-07-24T15:49:20;101459.53;;;16.75;nan
70053;BME280;57398;52.032;4.376;2023-07-24T15:52:08;101484.31;;;16.84;nan
70053;BME280;57398;52.032;4.376;2023-07-24T15:54:57;101505.53;;;16.83;nan
70053;BME280;57398;52.032;4.376;2023-07-24T15:57:46;101516.75;;;16.95;nan
70053;BME280;57398;52.032;4.376;2023-07-24T16:00:35;101548.34;;;17.05;nan
70053;BME280;57398;52.032;4.376;2023-07-24T16:03:23;101540.22;;;16.68;nan
70053;BME280;57398;52.032;4.376;2023-07-24T16:06:15;101494.63;;;16.52;nan
70053;BME280;57398;52.032;4.376;2023-07-24T16:09:03;101452.84;;;16.45;nan
70053;BME280;57398;52.032;4.376;2023-07-24T16:11:51;101432.31;;;16.59;nan
70053;BME280;57398;52.032;4.376;2023-07-24T16:14:40;101409.44;;;16.54;nan
70053;BME280;57398;52.032;4.376;2023-07-24T16:20:19;101419.38;;;16.74;nan
70053;BME280;57398;52.032;4.376;2023-07-24T16:23:10;101447.28;;;16.81;nan
70053;BME280;57398;52.032;4.376;2023-07-24T16:25:58;101477.28;;;16.68;nan
70053;BME280;57398;52.032;4.376;2023-07-24T16:28:46;101501.59;;;16.63;nan
70053;BME280;57398;52.032;4.376;2023-07-24T16:31:36;101523.75;;;16.89;nan
70053;BME280;57398;52.032;4.376;2023-07-24T16:34:24;101543.88;;;17.28;nan
70053;BME280;57398;52.032;4.376;2023-07-24T16:37:14;101544.72;;;16.89;nan
70053;BME280;57398;52.032;4.376;2023-07-24T16:40:06;101538.16;;;16.70;nan
70053;BME280;57398;52.032;4.376;2023-07-24T16:42:55;101558.59;;;17.07;nan
70053;BME280;57398;52.032;4.376;2023-07-24T16:45:44;101572.81;;;17.11;nan
70053;BME280;57398;52.032;4.376;2023-07-24T16:48:39;101593.19;;;16.82;nan